Terminal Aerodrome Forecast
Issued by NWS Mobile, AL

Home | Current Version | Previous Version | Text Only | Print | Product List | Glossary On
Versions: 1 2 3 4 5 6 7 8 9 10 11 12 13 14 15 16 17 18 19 20 21 22 23 24 25 26
000
FTUS44 KMOB 041145
TAFPNS
TAF
KPNS 041145Z 0412/0512 08005KT P6SM VCSH BKN050
      TEMPO 0412/0416 3SM -TSRA BKN007CB OVC015
     FM041800 19010KT P6SM VCTS OVC030CB
     FM050300 36005KT 2SM -RA BR OVC007=

USA.gov is the U.S. government's official web portal to all federal, state and local government web resources and services.